Time;durP1;ratioP1;P1;durP2;ratioP2;P2;SDS_P1;SDS_P2;PMS_P1;PMS_P2;Temp;Humidity;BMP_temperature;BMP_pressure;BME280_temperature;BME280_humidity;BME280_pressure;Samples;Min_cycle;Max_cycle;Signal;HPM_P1;HPM_P2
2023/06/08 00:01:17;;;;;;;10.40;5.20;;;;;;;-128.00;-1.00;-1.00;106435;1254;1010530;-70
2023/06/08 00:04:05;;;;;;;11.90;5.40;;;;;;;-128.00;-1.00;-1.00;106523;1254;1011563;-70
2023/06/08 00:06:52;;;;;;;11.10;5.20;;;;;;;-128.00;-1.00;-1.00;106510;1254;1013182;-70
2023/06/08 00:09:39;;;;;;;12.70;5.70;;;;;;;-128.00;-1.00;-1.00;106724;1254;1011956;-69
2023/06/08 00:12:25;;;;;;;10.60;5.20;;;;;;;-128.00;-1.00;-1.00;106558;1254;1012701;-69
2023/06/08 00:15:13;;;;;;;10.90;5.50;;;;;;;-128.00;-1.00;-1.00;106596;1254;1009746;-68
2023/06/08 00:18:01;;;;;;;11.90;5.70;;;;;;;-128.00;-1.00;-1.00;106524;1254;1011354;-70
2023/06/08 00:20:47;;;;;;;10.80;5.30;;;;;;;-128.00;-1.00;-1.00;106522;1254;1013422;-69
2023/06/08 00:23:34;;;;;;;11.60;5.50;;;;;;;-128.00;-1.00;-1.00;106521;1254;1011446;-69
2023/06/08 00:26:22;;;;;;;11.10;6.00;;;;;;;-128.00;-1.00;-1.00;106496;1254;1013985;-69
2023/06/08 00:29:08;;;;;;;11.70;5.90;;;;;;;-128.00;-1.00;-1.00;106497;1254;1009234;-69
2023/06/08 00:31:55;;;;;;;12.40;6.20;;;;;;;-128.00;-1.00;-1.00;106426;1254;1010625;-69
2023/06/08 00:34:41;;;;;;;12.50;6.20;;;;;;;-128.00;-1.00;-1.00;106495;1254;1012668;-70
2023/06/08 00:37:28;;;;;;;12.50;5.90;;;;;;;-128.00;-1.00;-1.00;106413;1254;1012661;-71
2023/06/08 00:40:15;;;;;;;12.10;5.60;;;;;;;-128.00;-1.00;-1.00;106498;1254;1012632;-72
2023/06/08 00:43:01;;;;;;;10.80;5.90;;;;;;;-128.00;-1.00;-1.00;106468;1254;1009129;-72
2023/06/08 00:45:48;;;;;;;11.60;5.30;;;;;;;-128.00;-1.00;-1.00;106467;1254;1011217;-72
2023/06/08 00:48:35;;;;;;;10.80;5.50;;;;;;;-128.00;-1.00;-1.00;106535;1254;1012794;-71
2023/06/08 00:51:23;;;;;;;10.40;5.70;;;;;;;-128.00;-1.00;-1.00;106493;1254;1012369;-71
2023/06/08 00:54:14;;;;;;;10.90;4.90;;;;;;;-128.00;-1.00;-1.00;106515;1254;1012825;-71
2023/06/08 00:57:03;;;;;;;12.40;4.80;;;;;;;-128.00;-1.00;-1.00;106486;1254;1010090;-69
2023/06/08 00:59:51;;;;;;;9.70;5.00;;;;;;;-128.00;-1.00;-1.00;106472;1254;1010927;-70
2023/06/08 01:02:38;;;;;;;10.60;5.20;;;;;;;-128.00;-1.00;-1.00;106526;1254;1011874;-71
2023/06/08 01:05:26;;;;;;;14.00;5.20;;;;;;;-128.00;-1.00;-1.00;106532;1254;1012054;-71
2023/06/08 01:08:42;;;;;;;11.10;5.30;;;;;;;-128.00;-1.00;-1.00;106558;1254;1012202;-71
2023/06/08 01:11:34;;;;;;;11.30;5.40;;;;;;;-128.00;-1.00;-1.00;106589;1254;1009474;-71
2023/06/08 01:14:57;;;;;;;10.90;5.30;;;;;;;-128.00;-1.00;-1.00;106679;1254;1010753;-70
2023/06/08 01:17:52;;;;;;;9.60;5.20;;;;;;;-128.00;-1.00;-1.00;106118;1263;1012187;-70
2023/06/08 01:21:14;;;;;;;10.50;5.40;;;;;;;-128.00;-1.00;-1.00;106081;1263;1012358;-71
2023/06/08 01:24:19;;;;;;;10.80;5.40;;;;;;;-128.00;-1.00;-1.00;105548;1270;1012531;-71
2023/06/08 01:27:09;;;;;;;11.00;5.10;;;;;;;-128.00;-1.00;-1.00;105534;1270;1009821;-71
2023/06/08 01:29:58;;;;;;;10.50;4.90;;;;;;;-128.00;-1.00;-1.00;105339;1270;1011383;-70
2023/06/08 01:32:46;;;;;;;10.70;5.10;;;;;;;-128.00;-1.00;-1.00;105431;1270;1012977;-72
2023/06/08 01:35:33;;;;;;;9.80;4.70;;;;;;;-128.00;-1.00;-1.00;105423;1270;1012667;-71
2023/06/08 01:39:08;;;;;;;9.90;4.70;;;;;;;-128.00;-1.00;-1.00;105354;1270;1011843;-71
2023/06/08 01:42:00;;;;;;;10.10;5.30;;;;;;;-128.00;-1.00;-1.00;105414;1270;1010183;-70
2023/06/08 01:45:00;;;;;;;9.40;4.90;;;;;;;-128.00;-1.00;-1.00;105553;1270;1011787;-71
2023/06/08 01:47:58;;;;;;;12.80;5.50;;;;;;;-128.00;-1.00;-1.00;105475;1270;1013526;-72
2023/06/08 01:50:48;;;;;;;10.30;5.40;;;;;;;-128.00;-1.00;-1.00;105372;1276;1012627;-70
2023/06/08 01:53:36;;;;;;;10.10;5.40;;;;;;;-128.00;-1.00;-1.00;105140;1264;1012581;-70
2023/06/08 01:56:27;;;;;;;10.00;4.40;;;;;;;-128.00;-1.00;-1.00;105995;1264;1010441;-71
2023/06/08 01:59:13;;;;;;;10.00;4.50;;;;;;;-128.00;-1.00;-1.00;106038;1263;1010719;-71
2023/06/08 02:02:00;;;;;;;14.90;7.80;;;;;;;-128.00;-1.00;-1.00;106376;1256;1012924;-70
2023/06/08 02:04:47;;;;;;;11.10;5.60;;;;;;;-128.00;-1.00;-1.00;106500;1257;1012187;-71
2023/06/08 02:07:35;;;;;;;11.30;4.80;;;;;;;-128.00;-1.00;-1.00;106471;1254;1012745;-72
2023/06/08 02:10:23;;;;;;;12.50;5.20;;;;;;;-128.00;-1.00;-1.00;106539;1254;1009699;-70
2023/06/08 02:13:10;;;;;;;10.80;4.90;;;;;;;-128.00;-1.00;-1.00;106632;1254;1010381;-71
2023/06/08 02:15:57;;;;;;;9.80;5.10;;;;;;;-128.00;-1.00;-1.00;106444;1256;1014252;-70
2023/06/08 02:18:45;;;;;;;16.10;9.00;;;;;;;-128.00;-1.00;-1.00;106523;1259;1013248;-71
2023/06/08 02:21:32;;;;;;;11.70;5.60;;;;;;;-128.00;-1.00;-1.00;106534;1254;1012051;-70
2023/06/08 02:24:19;;;;;;;9.60;5.20;;;;;;;-128.00;-1.00;-1.00;106575;1257;1009761;-71
2023/06/08 02:27:05;;;;;;;10.80;4.90;;;;;;;-128.00;-1.00;-1.00;106518;1254;1010544;-71
2023/06/08 02:29:52;;;;;;;11.50;4.60;;;;;;;-128.00;-1.00;-1.00;106512;1255;1012039;-71
2023/06/08 02:32:41;;;;;;;8.90;4.70;;;;;;;-128.00;-1.00;-1.00;106521;1254;1012416;-70
2023/06/08 02:35:28;;;;;;;9.70;5.40;;;;;;;-128.00;-1.00;-1.00;106509;1254;1012708;-69
2023/06/08 02:38:16;;;;;;;12.70;5.10;;;;;;;-128.00;-1.00;-1.00;106546;1254;1011096;-71
2023/06/08 02:41:02;;;;;;;9.90;5.60;;;;;;;-128.00;-1.00;-1.00;106487;1254;1010750;-69
2023/06/08 02:43:49;;;;;;;11.30;5.00;;;;;;;-128.00;-1.00;-1.00;106508;1254;1012491;-71
2023/06/08 02:46:36;;;;;;;11.10;5.70;;;;;;;-128.00;-1.00;-1.00;106467;1254;1012501;-70
2023/06/08 02:49:23;;;;;;;11.20;5.80;;;;;;;-128.00;-1.00;-1.00;106632;1254;1013389;-71
2023/06/08 02:52:10;;;;;;;13.10;5.60;;;;;;;-128.00;-1.00;-1.00;106471;1254;1010436;-70
2023/06/08 02:54:56;;;;;;;9.20;4.90;;;;;;;-128.00;-1.00;-1.00;106322;1257;1011381;-71
2023/06/08 02:57:43;;;;;;;10.10;4.80;;;;;;;-128.00;-1.00;-1.00;106321;1257;1013047;-71
2023/06/08 03:00:32;;;;;;;9.60;5.10;;;;;;;-128.00;-1.00;-1.00;106257;1257;1012014;-70
2023/06/08 03:03:39;;;;;;;10.10;5.20;;;;;;;-128.00;-1.00;-1.00;106339;1257;1013271;-71
2023/06/08 03:06:33;;;;;;;9.90;4.80;;;;;;;-128.00;-1.00;-1.00;106358;1257;1010431;-71
2023/06/08 03:09:24;;;;;;;9.30;4.80;;;;;;;-128.00;-1.00;-1.00;106340;1258;1010713;-72
2023/06/08 03:12:13;;;;;;;11.80;5.70;;;;;;;-128.00;-1.00;-1.00;106346;1260;1012614;-72
2023/06/08 03:15:01;;;;;;;10.40;5.30;;;;;;;-128.00;-1.00;-1.00;106351;1261;1012719;-69
2023/06/08 03:17:51;;;;;;;9.40;5.30;;;;;;;-128.00;-1.00;-1.00;106318;1257;1011751;-71
2023/06/08 03:20:37;;;;;;;11.40;4.90;;;;;;;-128.00;-1.00;-1.00;106367;1259;1009884;-70
2023/06/08 03:23:33;;;;;;;10.40;5.00;;;;;;;-128.00;-1.00;-1.00;106339;1257;1011464;-71
2023/06/08 03:26:21;;;;;;;9.10;4.70;;;;;;;-128.00;-1.00;-1.00;106480;1254;1012211;-70
2023/06/08 03:29:08;;;;;;;10.90;4.70;;;;;;;-128.00;-1.00;-1.00;106471;1254;1012603;-70
2023/06/08 03:31:57;;;;;;;9.70;4.40;;;;;;;-128.00;-1.00;-1.00;106604;1253;1013931;-72
2023/06/08 03:34:44;;;;;;;9.40;4.40;;;;;;;-128.00;-1.00;-1.00;106561;1254;1010532;-71
2023/06/08 03:37:31;;;;;;;10.30;5.50;;;;;;;-128.00;-1.00;-1.00;106488;1254;1010566;-71
2023/06/08 03:40:19;;;;;;;8.40;4.10;;;;;;;-128.00;-1.00;-1.00;106493;1254;1012898;-70
2023/06/08 03:43:05;;;;;;;10.10;4.70;;;;;;;-128.00;-1.00;-1.00;106568;1258;1012179;-71
2023/06/08 03:45:52;;;;;;;9.90;4.90;;;;;;;-128.00;-1.00;-1.00;106514;1254;1013686;-70
2023/06/08 03:48:40;;;;;;;10.30;4.70;;;;;;;-128.00;-1.00;-1.00;106498;1254;1009366;-72
2023/06/08 03:51:27;;;;;;;11.30;4.80;;;;;;;-128.00;-1.00;-1.00;106494;1254;1010209;-69
2023/06/08 03:54:15;;;;;;;9.60;5.20;;;;;;;-128.00;-1.00;-1.00;106481;1254;1013113;-70
2023/06/08 03:57:02;;;;;;;11.50;5.10;;;;;;;-128.00;-1.00;-1.00;106409;1254;1012029;-70
2023/06/08 03:59:49;;;;;;;9.80;5.00;;;;;;;-128.00;-1.00;-1.00;106519;1254;1012497;-72
2023/06/08 04:02:36;;;;;;;9.60;5.00;;;;;;;-128.00;-1.00;-1.00;106525;1254;1009657;-71
2023/06/08 04:05:24;;;;;;;9.60;4.90;;;;;;;-128.00;-1.00;-1.00;106496;1254;1011276;-71
2023/06/08 04:08:11;;;;;;;10.50;5.00;;;;;;;-128.00;-1.00;-1.00;106497;1254;1012647;-70
2023/06/08 04:11:00;;;;;;;9.50;5.20;;;;;;;-128.00;-1.00;-1.00;106540;1254;1012645;-71
2023/06/08 04:13:47;;;;;;;9.80;4.70;;;;;;;-128.00;-1.00;-1.00;106470;1254;1012294;-73
2023/06/08 04:16:40;;;;;;;10.20;5.50;;;;;;;-128.00;-1.00;-1.00;106415;1255;1009430;-70
2023/06/08 04:19:27;;;;;;;10.90;5.50;;;;;;;-128.00;-1.00;-1.00;106513;1255;1010364;-71
2023/06/08 04:22:14;;;;;;;9.80;5.40;;;;;;;-128.00;-1.00;-1.00;106492;1255;1011770;-71
2023/06/08 04:25:03;;;;;;;9.90;5.60;;;;;;;-128.00;-1.00;-1.00;106449;1259;1012053;-72
2023/06/08 04:27:52;;;;;;;12.10;5.50;;;;;;;-128.00;-1.00;-1.00;106413;1254;1012532;-72
2023/06/08 04:30:39;;;;;;;9.50;4.90;;;;;;;-128.00;-1.00;-1.00;106430;1254;1009755;-73
2023/06/08 04:33:28;;;;;;;10.20;5.20;;;;;;;-128.00;-1.00;-1.00;106558;1254;1011462;-73
2023/06/08 04:36:16;;;;;;;10.30;5.70;;;;;;;-128.00;-1.00;-1.00;106512;1254;1012731;-73
2023/06/08 04:39:03;;;;;;;10.70;5.40;;;;;;;-128.00;-1.00;-1.00;106581;1254;1013437;-72
2023/06/08 04:41:55;;;;;;;9.30;4.90;;;;;;;-128.00;-1.00;-1.00;106454;1254;1012812;-73
2023/06/08 04:44:45;;;;;;;10.10;5.20;;;;;;;-128.00;-1.00;-1.00;106465;1254;1008905;-73
2023/06/08 04:47:33;;;;;;;10.40;5.50;;;;;;;-128.00;-1.00;-1.00;106454;1254;1010785;-72
2023/06/08 04:50:19;;;;;;;9.80;5.00;;;;;;;-128.00;-1.00;-1.00;106436;1254;1012395;-73
2023/06/08 04:53:05;;;;;;;10.70;4.60;;;;;;;-128.00;-1.00;-1.00;106352;1254;1012537;-72
2023/06/08 04:55:59;;;;;;;10.40;4.60;;;;;;;-128.00;-1.00;-1.00;106552;1254;1012634;-74
2023/06/08 04:58:46;;;;;;;7.90;4.10;;;;;;;-128.00;-1.00;-1.00;106518;1254;1010061;-72
2023/06/08 05:01:34;;;;;;;8.30;4.00;;;;;;;-128.00;-1.00;-1.00;106496;1254;1011354;-72
2023/06/08 05:04:21;;;;;;;9.60;3.60;;;;;;;-128.00;-1.00;-1.00;106362;1255;1012926;-74
2023/06/08 05:07:08;;;;;;;7.90;3.60;;;;;;;-128.00;-1.00;-1.00;106547;1254;1011979;-74
2023/06/08 05:09:56;;;;;;;10.60;3.80;;;;;;;-128.00;-1.00;-1.00;106662;1254;1013102;-72
2023/06/08 05:12:42;;;;;;;8.70;3.30;;;;;;;-128.00;-1.00;-1.00;106499;1254;1010320;-73
2023/06/08 05:15:32;;;;;;;9.40;3.10;;;;;;;-128.00;-1.00;-1.00;106472;1254;1010579;-74
2023/06/08 05:18:18;;;;;;;10.40;3.10;;;;;;;-128.00;-1.00;-1.00;106503;1253;1013382;-73
2023/06/08 05:21:05;;;;;;;8.50;3.20;;;;;;;-128.00;-1.00;-1.00;106444;1254;1011909;-73
2023/06/08 05:23:51;;;;;;;8.70;3.50;;;;;;;-128.00;-1.00;-1.00;106390;1254;1012821;-69
2023/06/08 05:26:41;;;;;;;11.40;3.70;;;;;;;-128.00;-1.00;-1.00;106461;1254;1009750;-73
2023/06/08 05:29:28;;;;;;;7.20;3.10;;;;;;;-128.00;-1.00;-1.00;106479;1254;1011084;-72
2023/06/08 05:32:14;;;;;;;8.20;3.20;;;;;;;-128.00;-1.00;-1.00;106502;1254;1012375;-73
2023/06/08 05:35:03;;;;;;;8.20;3.30;;;;;;;-128.00;-1.00;-1.00;106461;1254;1012079;-73
2023/06/08 05:37:50;;;;;;;7.40;2.70;;;;;;;-128.00;-1.00;-1.00;106374;1259;1013205;-73
2023/06/08 05:40:37;;;;;;;8.00;3.00;;;;;;;-128.00;-1.00;-1.00;106501;1256;1009681;-73
2023/06/08 05:43:23;;;;;;;6.90;2.90;;;;;;;-128.00;-1.00;-1.00;106547;1254;1010816;-74
2023/06/08 05:46:10;;;;;;;7.30;2.90;;;;;;;-128.00;-1.00;-1.00;106462;1254;1012442;-76
2023/06/08 05:48:57;;;;;;;6.50;2.70;;;;;;;-128.00;-1.00;-1.00;106440;1259;1012494;-76
2023/06/08 05:51:43;;;;;;;8.90;2.60;;;;;;;-128.00;-1.00;-1.00;106510;1254;1012305;-73
2023/06/08 05:54:30;;;;;;;7.90;2.60;;;;;;;-128.00;-1.00;-1.00;106768;1255;1009457;-75
2023/06/08 05:57:17;;;;;;;9.30;2.70;;;;;;;-128.00;-1.00;-1.00;106524;1254;1010904;-75
2023/06/08 06:00:09;;;;;;;7.50;2.40;;;;;;;-128.00;-1.00;-1.00;106420;1254;1012488;-75
2023/06/08 06:02:58;;;;;;;7.80;2.80;;;;;;;-128.00;-1.00;-1.00;106572;1260;1013590;-75
2023/06/08 06:05:49;;;;;;;7.40;2.50;;;;;;;-128.00;-1.00;-1.00;106398;1255;1012344;-74
2023/06/08 06:08:36;;;;;;;8.00;2.50;;;;;;;-128.00;-1.00;-1.00;106432;1254;1009861;-72
2023/06/08 06:11:22;;;;;;;8.30;2.40;;;;;;;-128.00;-1.00;-1.00;106455;1254;1010854;-74
2023/06/08 06:14:09;;;;;;;6.90;2.60;;;;;;;-128.00;-1.00;-1.00;106473;1254;1012149;-75
2023/06/08 06:16:56;;;;;;;7.10;2.60;;;;;;;-128.00;-1.00;-1.00;106483;1254;1012698;-74
2023/06/08 06:19:53;;;;;;;6.90;2.70;;;;;;;-128.00;-1.00;-1.00;106481;1254;1012240;-72
2023/06/08 06:22:40;;;;;;;7.30;2.40;;;;;;;-128.00;-1.00;-1.00;106238;1259;1009665;-73
2023/06/08 06:25:27;;;;;;;6.40;2.40;;;;;;;-128.00;-1.00;-1.00;106206;1259;1010522;-74
2023/06/08 06:28:14;;;;;;;7.20;2.40;;;;;;;-128.00;-1.00;-1.00;106235;1259;1012233;-75
2023/06/08 06:31:01;;;;;;;9.60;2.90;;;;;;;-128.00;-1.00;-1.00;106209;1261;1011898;-72
2023/06/08 06:33:47;;;;;;;7.50;2.60;;;;;;;-128.00;-1.00;-1.00;106209;1259;1012808;-73
2023/06/08 06:36:34;;;;;;;7.50;2.40;;;;;;;-128.00;-1.00;-1.00;106153;1259;1010594;-76
2023/06/08 06:39:21;;;;;;;8.80;2.70;;;;;;;-128.00;-1.00;-1.00;106230;1259;1011230;-74
2023/06/08 06:42:09;;;;;;;7.00;2.50;;;;;;;-128.00;-1.00;-1.00;106249;1259;1013294;-73
2023/06/08 06:45:11;;;;;;;8.00;2.70;;;;;;;-128.00;-1.00;-1.00;106212;1259;1012798;-76
2023/06/08 06:47:57;;;;;;;7.90;2.50;;;;;;;-128.00;-1.00;-1.00;106000;1263;1012341;-76
2023/06/08 06:50:46;;;;;;;6.70;2.30;;;;;;;-128.00;-1.00;-1.00;106035;1263;1009771;-74
2023/06/08 06:53:32;;;;;;;7.70;2.60;;;;;;;-128.00;-1.00;-1.00;106210;1259;1010881;-74
2023/06/08 06:56:21;;;;;;;6.50;2.50;;;;;;;-128.00;-1.00;-1.00;106281;1258;1014400;-71
2023/06/08 06:59:08;;;;;;;9.00;2.90;;;;;;;-128.00;-1.00;-1.00;106240;1264;1012899;-75
2023/06/08 07:01:55;;;;;;;7.20;2.50;;;;;;;-128.00;-1.00;-1.00;106136;1258;1012633;-77
2023/06/08 07:04:42;;;;;;;9.40;2.90;;;;;;;-128.00;-1.00;-1.00;106293;1259;1009787;-75
2023/06/08 07:07:28;;;;;;;6.40;2.60;;;;;;;-128.00;-1.00;-1.00;106348;1258;1011290;-75
2023/06/08 07:10:15;;;;;;;7.40;2.70;;;;;;;-128.00;-1.00;-1.00;106278;1259;1012753;-74
2023/06/08 07:13:02;;;;;;;6.30;2.40;;;;;;;-128.00;-1.00;-1.00;106097;1267;1012713;-76
2023/06/08 07:15:48;;;;;;;6.70;2.40;;;;;;;-128.00;-1.00;-1.00;106111;1262;1012628;-72
2023/06/08 07:18:37;;;;;;;7.30;2.80;;;;;;;-128.00;-1.00;-1.00;106163;1259;1010273;-74
2023/06/08 07:21:23;;;;;;;7.70;2.50;;;;;;;-128.00;-1.00;-1.00;106271;1258;1011957;-76
2023/06/08 07:24:14;;;;;;;6.50;2.50;;;;;;;-128.00;-1.00;-1.00;106282;1259;1012433;-75
2023/06/08 07:27:21;;;;;;;7.00;2.60;;;;;;;-128.00;-1.00;-1.00;106238;1259;1012703;-76
2023/06/08 07:30:10;;;;;;;8.70;3.30;;;;;;;-128.00;-1.00;-1.00;106342;1258;1013479;-81
2023/06/08 07:33:01;;;;;;;8.30;2.70;;;;;;;-128.00;-1.00;-1.00;106358;1259;1009747;-79
2023/06/08 07:35:47;;;;;;;10.20;5.20;;;;;;;-128.00;-1.00;-1.00;106274;1258;1011086;-77
2023/06/08 07:38:34;;;;;;;7.60;2.80;;;;;;;-128.00;-1.00;-1.00;106261;1258;1012719;-79
2023/06/08 07:41:22;;;;;;;6.50;2.80;;;;;;;-128.00;-1.00;-1.00;106327;1258;1012663;-77
2023/06/08 07:44:13;;;;;;;10.20;6.20;;;;;;;-128.00;-1.00;-1.00;106449;1256;1012116;-79
2023/06/08 07:47:00;;;;;;;7.30;2.90;;;;;;;-128.00;-1.00;-1.00;106454;1254;1010115;-78
2023/06/08 07:49:47;;;;;;;9.00;2.80;;;;;;;-128.00;-1.00;-1.00;106689;1254;1010848;-79
2023/06/08 07:52:35;;;;;;;9.40;3.10;;;;;;;-128.00;-1.00;-1.00;106541;1254;1012634;-80
2023/06/08 07:55:22;;;;;;;7.70;2.70;;;;;;;-128.00;-1.00;-1.00;106636;1254;1012477;-78
2023/06/08 07:58:09;;;;;;;11.30;6.90;;;;;;;-128.00;-1.00;-1.00;106661;1254;1012544;-77
2023/06/08 08:00:57;;;;;;;8.50;3.00;;;;;;;-128.00;-1.00;-1.00;106487;1254;1009789;-82
2023/06/08 08:03:43;;;;;;;9.60;3.70;;;;;;;-128.00;-1.00;-1.00;106457;1255;1011098;-80
2023/06/08 08:06:33;;;;;;;9.70;4.90;;;;;;;-128.00;-1.00;-1.00;106530;1253;1011938;-81
2023/06/08 08:09:19;;;;;;;8.60;3.30;;;;;;;-128.00;-1.00;-1.00;106542;1258;1012880;-78
2023/06/08 08:12:09;;;;;;;7.90;2.80;;;;;;;-128.00;-1.00;-1.00;106505;1255;1012951;-79
2023/06/08 08:14:56;;;;;;;7.00;2.90;;;;;;;-128.00;-1.00;-1.00;106460;1255;1009482;-76
2023/06/08 08:17:43;;;;;;;9.10;4.40;;;;;;;-128.00;-1.00;-1.00;106529;1254;1010977;-80
2023/06/08 08:20:30;;;;;;;8.00;3.10;;;;;;;-128.00;-1.00;-1.00;106454;1259;1012963;-79
2023/06/08 08:23:17;;;;;;;8.90;2.60;;;;;;;-128.00;-1.00;-1.00;106531;1258;1012013;-80
2023/06/08 08:26:04;;;;;;;6.50;2.70;;;;;;;-128.00;-1.00;-1.00;106476;1256;1012582;-79
2023/06/08 08:28:52;;;;;;;7.80;2.70;;;;;;;-128.00;-1.00;-1.00;106432;1256;1009835;-79
2023/06/08 08:31:41;;;;;;;8.20;2.70;;;;;;;-128.00;-1.00;-1.00;106261;1258;1010959;-79
2023/06/08 08:34:28;;;;;;;7.60;3.10;;;;;;;-128.00;-1.00;-1.00;106257;1259;1013061;-82
2023/06/08 08:37:17;;;;;;;7.20;2.80;;;;;;;-128.00;-1.00;-1.00;106195;1265;1012163;-81
2023/06/08 08:40:05;;;;;;;9.20;2.90;;;;;;;-128.00;-1.00;-1.00;106095;1262;1012687;-78
2023/06/08 08:43:10;;;;;;;6.90;2.40;;;;;;;-128.00;-1.00;-1.00;106113;1262;1008973;-78
2023/06/08 08:46:00;;;;;;;8.60;2.90;;;;;;;-128.00;-1.00;-1.00;106104;1261;1011803;-78
2023/06/08 08:48:50;;;;;;;6.70;2.90;;;;;;;-128.00;-1.00;-1.00;106144;1261;1012188;-77
2023/06/08 08:51:38;;;;;;;9.40;3.30;;;;;;;-128.00;-1.00;-1.00;106076;1265;1012964;-79
2023/06/08 08:54:31;;;;;;;8.00;2.80;;;;;;;-128.00;-1.00;-1.00;106102;1262;1012500;-81
2023/06/08 08:57:18;;;;;;;6.60;2.60;;;;;;;-128.00;-1.00;-1.00;106158;1261;1010123;-80
2023/06/08 09:00:10;;;;;;;7.30;2.80;;;;;;;-128.00;-1.00;-1.00;106000;1261;1010505;-80
2023/06/08 09:02:58;;;;;;;7.70;2.90;;;;;;;-128.00;-1.00;-1.00;106306;1258;1013059;-80
2023/06/08 09:05:52;;;;;;;8.10;2.60;;;;;;;-128.00;-1.00;-1.00;106261;1259;1012982;-76
2023/06/08 09:08:42;;;;;;;8.60;2.70;;;;;;;-128.00;-1.00;-1.00;106357;1254;1013065;-78
2023/06/08 09:11:29;;;;;;;8.60;2.40;;;;;;;-128.00;-1.00;-1.00;106502;1254;1009185;-80
2023/06/08 09:14:16;;;;;;;7.60;2.60;;;;;;;-128.00;-1.00;-1.00;106506;1256;1010920;-82
2023/06/08 09:17:07;;;;;;;8.00;2.80;;;;;;;-128.00;-1.00;-1.00;106504;1256;1012585;-78
2023/06/08 09:19:56;;;;;;;6.80;2.50;;;;;;;-128.00;-1.00;-1.00;106525;1259;1012582;-79
2023/06/08 09:22:44;;;;;;;7.70;2.70;;;;;;;-128.00;-1.00;-1.00;106499;1259;1012477;-77
2023/06/08 09:25:38;;;;;;;6.80;2.70;;;;;;;-128.00;-1.00;-1.00;106493;1254;1010186;-76
2023/06/08 09:28:25;;;;;;;8.80;3.30;;;;;;;-128.00;-1.00;-1.00;106586;1254;1010756;-79
2023/06/08 09:31:15;;;;;;;6.50;2.60;;;;;;;-128.00;-1.00;-1.00;106396;1259;1013560;-83
2023/06/08 09:34:25;;;;;;;9.00;3.10;;;;;;;-128.00;-1.00;-1.00;106296;1259;1012144;-78
2023/06/08 09:37:12;;;;;;;8.60;3.00;;;;;;;-128.00;-1.00;-1.00;106326;1259;1012662;-79
2023/06/08 09:40:01;;;;;;;7.20;2.80;;;;;;;-128.00;-1.00;-1.00;106345;1258;1009112;-80
2023/06/08 09:42:53;;;;;;;10.10;3.00;;;;;;;-128.00;-1.00;-1.00;106336;1258;1011793;-80
2023/06/08 09:45:44;;;;;;;8.00;2.80;;;;;;;-128.00;-1.00;-1.00;106303;1262;1012056;-80
2023/06/08 09:48:32;;;;;;;8.40;3.00;;;;;;;-128.00;-1.00;-1.00;106246;1266;1013143;-80
2023/06/08 09:51:23;;;;;;;8.20;2.80;;;;;;;-128.00;-1.00;-1.00;106238;1260;1012958;-81
2023/06/08 09:54:13;;;;;;;7.40;2.60;;;;;;;-128.00;-1.00;-1.00;106273;1261;1009936;-80
2023/06/08 09:57:05;;;;;;;9.90;2.90;;;;;;;-128.00;-1.00;-1.00;106081;1260;1010436;-80
2023/06/08 10:00:24;;;;;;;10.30;3.10;;;;;;;-128.00;-1.00;-1.00;106079;1266;1012099;-81
2023/06/08 10:03:47;;;;;;;8.60;3.00;;;;;;;-128.00;-1.00;-1.00;106257;1260;1013233;-82
2023/06/08 10:06:35;;;;;;;7.90;3.00;;;;;;;-128.00;-1.00;-1.00;106122;1262;1013536;-80
2023/06/08 10:09:28;;;;;;;8.20;3.30;;;;;;;-128.00;-1.00;-1.00;106260;1260;1009483;-79
2023/06/08 10:12:18;;;;;;;7.20;3.30;;;;;;;-128.00;-1.00;-1.00;106265;1261;1011556;-81
2023/06/08 10:15:07;;;;;;;7.20;3.20;;;;;;;-128.00;-1.00;-1.00;106153;1260;1013431;-80
2023/06/08 10:17:57;;;;;;;9.80;3.60;;;;;;;-128.00;-1.00;-1.00;106218;1260;1012522;-81
2023/06/08 10:20:47;;;;;;;8.40;3.10;;;;;;;-128.00;-1.00;-1.00;106117;1261;1013851;-80
2023/06/08 10:23:35;;;;;;;7.60;3.30;;;;;;;-128.00;-1.00;-1.00;106103;1261;1010422;-82
2023/06/08 10:26:23;;;;;;;9.20;3.60;;;;;;;-128.00;-1.00;-1.00;106058;1262;1011043;-77
2023/06/08 10:29:11;;;;;;;10.40;4.20;;;;;;;-128.00;-1.00;-1.00;106123;1260;1012552;-77
2023/06/08 10:32:10;;;;;;;7.90;3.80;;;;;;;-128.00;-1.00;-1.00;106015;1259;1012638;-78
2023/06/08 10:34:58;;;;;;;9.30;4.00;;;;;;;-128.00;-1.00;-1.00;106270;1259;1013132;-77
2023/06/08 10:37:46;;;;;;;7.80;3.60;;;;;;;-128.00;-1.00;-1.00;106376;1256;1010393;-78
2023/06/08 10:40:49;;;;;;;8.60;3.90;;;;;;;-128.00;-1.00;-1.00;106450;1256;1011398;-77
2023/06/08 10:43:37;;;;;;;8.10;3.40;;;;;;;-128.00;-1.00;-1.00;106445;1254;1012735;-75
2023/06/08 10:46:42;;;;;;;8.90;3.90;;;;;;;-128.00;-1.00;-1.00;106550;1254;1012963;-76
2023/06/08 10:49:37;;;;;;;10.30;4.70;;;;;;;-128.00;-1.00;-1.00;106468;1254;1013054;-76
2023/06/08 10:52:25;;;;;;;7.70;3.80;;;;;;;-128.00;-1.00;-1.00;106486;1255;1009327;-76
2023/06/08 10:55:16;;;;;;;9.10;3.60;;;;;;;-128.00;-1.00;-1.00;106411;1254;1011442;-75
2023/06/08 10:58:15;;;;;;;9.90;3.70;;;;;;;-128.00;-1.00;-1.00;106373;1259;1012188;-75
2023/06/08 11:01:06;;;;;;;10.80;3.70;;;;;;;-128.00;-1.00;-1.00;106181;1258;1013073;-76
2023/06/08 11:03:57;;;;;;;10.80;6.10;;;;;;;-128.00;-1.00;-1.00;106258;1259;1012257;-75
2023/06/08 11:06:45;;;;;;;9.20;3.70;;;;;;;-128.00;-1.00;-1.00;106204;1261;1009578;-80
2023/06/08 11:09:36;;;;;;;8.90;4.20;;;;;;;-128.00;-1.00;-1.00;106357;1259;1010934;-77
2023/06/08 11:12:24;;;;;;;8.90;4.40;;;;;;;-128.00;-1.00;-1.00;106210;1259;1012445;-76
2023/06/08 11:15:11;;;;;;;9.50;4.20;;;;;;;-128.00;-1.00;-1.00;106244;1259;1012379;-77
2023/06/08 11:18:00;;;;;;;8.80;3.70;;;;;;;-128.00;-1.00;-1.00;106219;1260;1012928;-78
2023/06/08 11:20:47;;;;;;;8.50;4.20;;;;;;;-128.00;-1.00;-1.00;106215;1259;1009694;-76
2023/06/08 11:23:34;;;;;;;9.60;4.30;;;;;;;-128.00;-1.00;-1.00;106209;1261;1011775;-77
2023/06/08 11:26:21;;;;;;;9.90;4.50;;;;;;;-128.00;-1.00;-1.00;106311;1259;1012841;-77
2023/06/08 11:29:09;;;;;;;10.20;3.90;;;;;;;-128.00;-1.00;-1.00;106513;1254;1012350;-75
2023/06/08 11:32:10;;;;;;;10.70;4.60;;;;;;;-128.00;-1.00;-1.00;106535;1254;1012666;-74
2023/06/08 11:35:00;;;;;;;8.60;4.10;;;;;;;-128.00;-1.00;-1.00;106437;1254;1010057;-76
2023/06/08 11:37:59;;;;;;;8.70;3.90;;;;;;;-128.00;-1.00;-1.00;106530;1254;1010977;-77
2023/06/08 11:40:47;;;;;;;9.00;4.40;;;;;;;-128.00;-1.00;-1.00;106508;1260;1012430;-75
2023/06/08 11:43:33;;;;;;;10.30;4.30;;;;;;;-128.00;-1.00;-1.00;106485;1254;1011922;-76
2023/06/08 11:46:20;;;;;;;7.90;4.00;;;;;;;-128.00;-1.00;-1.00;106521;1254;1012899;-75
2023/06/08 11:49:10;;;;;;;9.80;4.30;;;;;;;-128.00;-1.00;-1.00;106468;1254;1009861;-75
2023/06/08 11:51:57;;;;;;;10.20;4.20;;;;;;;-128.00;-1.00;-1.00;106492;1254;1011479;-72
2023/06/08 11:54:43;;;;;;;10.10;4.30;;;;;;;-128.00;-1.00;-1.00;106478;1254;1013401;-74
2023/06/08 11:57:47;;;;;;;10.50;4.50;;;;;;;-128.00;-1.00;-1.00;106384;1262;1012391;-75
2023/06/08 12:00:34;;;;;;;10.20;3.90;;;;;;;-128.00;-1.00;-1.00;106575;1258;1013320;-75
2023/06/08 12:03:21;;;;;;;9.60;3.90;;;;;;;-128.00;-1.00;-1.00;106458;1257;1009910;-75
2023/06/08 12:06:08;;;;;;;9.30;4.60;;;;;;;-128.00;-1.00;-1.00;106381;1259;1011634;-76
2023/06/08 12:08:56;;;;;;;11.90;6.70;;;;;;;-128.00;-1.00;-1.00;106457;1254;1012858;-75
2023/06/08 12:11:43;;;;;;;11.90;5.30;;;;;;;-128.00;-1.00;-1.00;106531;1259;1012527;-74
2023/06/08 12:14:52;;;;;;;10.80;5.00;;;;;;;-128.00;-1.00;-1.00;106646;1254;1013256;-75
2023/06/08 12:17:39;;;;;;;9.80;5.40;;;;;;;-128.00;-1.00;-1.00;106564;1254;1009160;-75
2023/06/08 12:20:33;;;;;;;9.30;4.50;;;;;;;-128.00;-1.00;-1.00;106570;1254;1011727;-73
2023/06/08 12:23:20;;;;;;;8.80;4.50;;;;;;;-128.00;-1.00;-1.00;106519;1254;1011737;-73
2023/06/08 12:26:10;;;;;;;8.50;4.70;;;;;;;-128.00;-1.00;-1.00;106657;1254;1012969;-75
2023/06/08 12:29:09;;;;;;;10.80;4.80;;;;;;;-128.00;-1.00;-1.00;106560;1254;1013055;-74
2023/06/08 12:31:56;;;;;;;11.30;4.80;;;;;;;-128.00;-1.00;-1.00;106571;1254;1009489;-74
2023/06/08 12:34:45;;;;;;;9.70;4.90;;;;;;;-128.00;-1.00;-1.00;106572;1255;1011113;-75
2023/06/08 12:37:31;;;;;;;11.20;5.50;;;;;;;-128.00;-1.00;-1.00;106688;1254;1013005;-74
2023/06/08 12:40:20;;;;;;;10.60;4.80;;;;;;;-128.00;-1.00;-1.00;106509;1254;1011621;-72
2023/06/08 12:43:07;;;;;;;9.40;4.50;;;;;;;-128.00;-1.00;-1.00;106605;1255;1012287;-73
2023/06/08 12:45:54;;;;;;;9.00;3.80;;;;;;;-128.00;-1.00;-1.00;106470;1254;1009040;-74
2023/06/08 12:48:43;;;;;;;8.30;3.90;;;;;;;-128.00;-1.00;-1.00;106591;1258;1011619;-73
2023/06/08 12:51:29;;;;;;;8.90;4.10;;;;;;;-128.00;-1.00;-1.00;106550;1254;1012232;-73
2023/06/08 12:54:16;;;;;;;8.20;4.30;;;;;;;-128.00;-1.00;-1.00;106498;1254;1012076;-72
2023/06/08 12:57:03;;;;;;;11.30;4.00;;;;;;;-128.00;-1.00;-1.00;106465;1254;1011787;-75